Time;durP1;ratioP1;P1;durP2;ratioP2;P2;SDS_P1;SDS_P2;PMS_P1;PMS_P2;Temp;Humidity;BMP_temperature;BMP_pressure;BME280_temperature;BME280_humidity;BME280_pressure;Samples;Min_cycle;Max_cycle;Signal;HPM_P1;HPM_P2
2021/06/24 00:01:11;;;;;;;9.30;6.63;;;;;;;19.17;81.30;100629.53;5015107;28;20069;-75
2021/06/24 00:03:38;;;;;;;9.70;7.25;;;;;;;19.10;81.11;100626.84;5019689;28;20045;-75
2021/06/24 00:06:06;;;;;;;7.50;6.10;;;;;;;19.10;80.85;100634.09;5022379;28;20284;-75
2021/06/24 00:08:32;;;;;;;6.60;5.35;;;;;;;19.10;81.10;100624.19;5025990;28;20063;-75
2021/06/24 00:10:59;;;;;;;6.82;6.13;;;;;;;19.06;81.15;100624.78;5041559;28;20120;-76
2021/06/24 00:13:25;;;;;;;7.60;6.50;;;;;;;19.01;81.32;100627.25;5036030;28;20099;-75
2021/06/24 00:15:51;;;;;;;7.32;6.63;;;;;;;18.97;81.56;100626.00;5025353;28;20029;-75
2021/06/24 00:18:17;;;;;;;9.15;6.15;;;;;;;19.01;81.09;100624.59;5023687;28;20037;-75
2021/06/24 00:20:44;;;;;;;8.80;7.13;;;;;;;18.99;81.21;100626.63;5022880;28;20061;-75
2021/06/24 00:23:10;;;;;;;6.90;6.13;;;;;;;18.98;82.14;100628.50;5017168;28;20056;-75
2021/06/24 00:25:36;;;;;;;6.68;5.97;;;;;;;19.04;81.42;100627.69;5034259;28;20052;-75
2021/06/24 00:28:02;;;;;;;7.78;6.43;;;;;;;19.10;80.91;100626.84;5018883;28;20367;-75
2021/06/24 00:30:28;;;;;;;7.03;5.78;;;;;;;19.12;81.82;100632.03;5024523;28;20040;-75
2021/06/24 00:32:53;;;;;;;7.70;5.40;;;;;;;19.14;80.85;100634.47;5027892;28;20029;-75
2021/06/24 00:35:18;;;;;;;6.93;5.80;;;;;;;19.17;80.80;100634.09;5026200;28;20041;-75
2021/06/24 00:37:44;;;;;;;6.68;5.07;;;;;;;19.19;80.82;100645.44;5021531;28;20056;-74
2021/06/24 00:40:11;;;;;;;6.90;5.95;;;;;;;19.16;81.20;100651.19;5026779;28;20084;-75
2021/06/24 00:42:38;;;;;;;6.82;5.32;;;;;;;19.19;80.67;100651.63;5018203;28;20049;-75
2021/06/24 00:45:07;;;;;;;7.45;5.70;;;;;;;19.23;80.72;100652.00;5028780;28;20435;-75
2021/06/24 00:47:32;;;;;;;6.50;5.88;;;;;;;19.24;80.62;100659.88;5012059;28;20406;-75
2021/06/24 00:49:58;;;;;;;7.18;6.07;;;;;;;19.22;81.35;100653.06;5010832;28;20044;-75
2021/06/24 00:52:23;;;;;;;7.97;6.35;;;;;;;19.22;81.94;100651.19;5022284;28;20040;-74
2021/06/24 00:54:49;;;;;;;8.23;7.13;;;;;;;19.25;80.54;100649.97;5029465;28;20109;-75
2021/06/24 00:57:14;;;;;;;6.07;5.47;;;;;;;19.24;80.93;100640.28;5027778;28;20570;-75
2021/06/24 00:59:40;;;;;;;8.88;6.57;;;;;;;19.27;80.24;100634.50;5018361;28;20038;-74
2021/06/24 01:02:06;;;;;;;7.63;6.35;;;;;;;19.30;80.00;100626.84;5020768;28;20525;-75
2021/06/24 01:04:33;;;;;;;7.18;6.47;;;;;;;19.23;80.36;100626.03;5020931;28;20030;-75
2021/06/24 01:06:59;;;;;;;9.02;6.68;;;;;;;19.20;80.37;100631.81;5027248;28;20036;-75
2021/06/24 01:09:24;;;;;;;8.38;6.40;;;;;;;19.22;80.06;100632.44;5027440;28;20046;-75
2021/06/24 01:11:50;;;;;;;8.68;6.30;;;;;;;19.25;80.26;100637.38;5025260;28;20655;-75
2021/06/24 01:14:15;;;;;;;8.95;7.10;;;;;;;19.32;80.05;100637.38;5015493;28;20038;-75
2021/06/24 01:16:42;;;;;;;7.90;6.13;;;;;;;19.24;80.24;100635.72;5022839;28;20430;-75
2021/06/24 01:19:10;;;;;;;7.28;6.28;;;;;;;19.21;80.80;100644.19;5014204;28;20034;-75
2021/06/24 01:21:36;;;;;;;9.63;6.97;;;;;;;19.18;80.79;100644.59;5014401;28;20492;-75
2021/06/24 01:24:01;;;;;;;9.82;7.78;;;;;;;19.16;80.78;100649.31;5022574;28;20338;-75
2021/06/24 01:26:26;;;;;;;8.25;7.10;;;;;;;19.06;80.96;100648.91;5031529;28;20091;-75
2021/06/24 01:28:52;;;;;;;10.98;7.80;;;;;;;19.02;81.24;100658.38;5034516;28;20029;-75
2021/06/24 01:31:19;;;;;;;9.45;7.32;;;;;;;19.03;81.14;100652.81;5020853;28;20061;-75
2021/06/24 01:33:45;;;;;;;9.82;7.65;;;;;;;18.99;81.44;100648.91;5012826;28;20033;-75
2021/06/24 01:36:10;;;;;;;9.93;8.00;;;;;;;18.86;81.89;100643.53;5005832;28;20049;-75
2021/06/24 01:38:36;;;;;;;7.72;6.93;;;;;;;18.77;82.29;100650.94;5007696;28;20107;-75
2021/06/24 01:41:02;;;;;;;8.30;6.80;;;;;;;18.70;83.39;100652.72;5005984;28;20121;-75
2021/06/24 01:43:28;;;;;;;9.73;7.75;;;;;;;18.68;82.78;100663.63;5006681;28;20532;-75
2021/06/24 01:45:56;;;;;;;8.70;7.80;;;;;;;18.63;83.06;100660.75;5007456;28;20047;-75
2021/06/24 01:48:22;;;;;;;8.73;7.78;;;;;;;18.55;83.00;100654.75;5000382;28;20046;-74
2021/06/24 01:50:49;;;;;;;8.95;7.63;;;;;;;18.49;83.47;100645.66;5010385;28;20030;-75
2021/06/24 01:53:15;;;;;;;9.55;8.25;;;;;;;18.43;83.45;100647.28;5012059;28;20034;-74
2021/06/24 01:55:41;;;;;;;13.32;9.93;;;;;;;18.43;83.17;100649.16;4992952;28;20057;-74
2021/06/24 01:58:21;;;;;;;10.75;7.95;;;;;;;18.38;83.87;100647.06;4990801;28;20117;-75
2021/06/24 02:00:48;;;;;;;11.32;8.70;;;;;;;18.42;83.51;100648.34;4994478;28;20039;-75
2021/06/24 02:03:14;;;;;;;15.38;9.75;;;;;;;18.44;83.07;100648.94;5003262;28;20092;-75
2021/06/24 02:05:41;;;;;;;11.55;9.32;;;;;;;18.37;83.64;100642.72;5005497;28;20037;-75
2021/06/24 02:08:13;;;;;;;10.63;9.18;;;;;;;18.30;84.03;100641.06;5006955;28;20077;-75
2021/06/24 02:10:39;;;;;;;10.50;9.40;;;;;;;18.28;83.79;100641.25;5009699;28;20042;-75
2021/06/24 02:13:04;;;;;;;10.60;9.18;;;;;;;18.20;84.27;100644.09;5008943;28;20068;-75
2021/06/24 02:15:29;;;;;;;10.90;9.05;;;;;;;18.17;84.30;100641.84;4996266;28;20039;-74
2021/06/24 02:17:54;;;;;;;10.50;9.30;;;;;;;18.16;84.21;100640.16;4996950;28;20030;-74
2021/06/24 02:20:20;;;;;;;12.27;9.65;;;;;;;18.20;84.05;100636.06;5005876;28;20037;-74
2021/06/24 02:22:45;;;;;;;12.90;10.32;;;;;;;18.17;84.18;100633.81;4999630;28;20038;-75
2021/06/24 02:25:15;;;;;;;12.15;9.82;;;;;;;18.14;84.45;100628.84;5004268;28;20045;-75
2021/06/24 02:27:41;;;;;;;11.95;9.55;;;;;;;18.06;84.80;100629.84;4998704;28;20034;-74
2021/06/24 02:30:07;;;;;;;13.98;10.63;;;;;;;18.09;84.22;100628.59;5009651;28;20048;-75
2021/06/24 02:32:33;;;;;;;12.48;9.10;;;;;;;17.98;85.61;100630.00;5000505;28;20034;-74
2021/06/24 02:34:58;;;;;;;11.30;9.70;;;;;;;18.08;84.61;100625.09;5001910;28;20057;-74
2021/06/24 02:37:24;;;;;;;12.10;9.65;;;;;;;18.04;85.31;100618.50;4998373;28;20105;-74
2021/06/24 02:39:50;;;;;;;10.63;9.52;;;;;;;18.08;84.82;100614.41;4999427;28;20461;-74
2021/06/24 02:42:15;;;;;;;11.68;9.10;;;;;;;18.09;84.82;100610.72;5004502;28;20528;-75
2021/06/24 02:44:42;;;;;;;12.98;9.85;;;;;;;18.14;84.65;100620.81;5004281;28;20033;-75
2021/06/24 02:47:07;;;;;;;11.23;9.70;;;;;;;18.11;84.90;100618.53;5004341;28;20034;-74
2021/06/24 02:49:33;;;;;;;11.73;9.82;;;;;;;17.96;86.22;100619.50;5015597;28;20034;-74
2021/06/24 02:51:58;;;;;;;11.07;9.43;;;;;;;17.90;87.17;100614.94;5002062;28;20033;-74
2021/06/24 02:54:23;;;;;;;13.27;11.10;;;;;;;17.80;87.03;100618.00;4997891;28;20027;-74
2021/06/24 02:56:49;;;;;;;11.90;10.48;;;;;;;17.78;86.84;100621.81;5003559;28;20034;-74
2021/06/24 02:59:14;;;;;;;11.20;10.00;;;;;;;17.72;88.08;100623.44;4993097;28;20046;-74
2021/06/24 03:01:39;;;;;;;12.15;10.40;;;;;;;17.69;88.67;100613.16;5000396;28;20031;-74
2021/06/24 03:04:08;;;;;;;11.50;10.30;;;;;;;17.70;87.80;100614.78;5006384;28;20038;-74
2021/06/24 03:06:34;;;;;;;11.07;9.35;;;;;;;17.69;87.87;100617.69;5011902;28;20111;-74
2021/06/24 03:09:01;;;;;;;13.23;10.52;;;;;;;17.69;87.60;100618.50;5003446;28;20055;-75
2021/06/24 03:11:26;;;;;;;10.90;9.80;;;;;;;17.65;88.32;100625.25;5009711;28;20406;-75
2021/06/24 03:13:53;;;;;;;11.05;9.75;;;;;;;17.62;88.56;100618.44;5007114;28;20046;-74
2021/06/24 03:16:18;;;;;;;11.85;10.50;;;;;;;17.65;87.78;100616.41;5003975;28;20038;-74
2021/06/24 03:18:46;;;;;;;11.55;10.35;;;;;;;17.62;88.72;100618.44;5009991;28;20034;-74
2021/06/24 03:21:12;;;;;;;12.63;11.27;;;;;;;17.60;88.88;100617.00;5000799;28;20045;-75
2021/06/24 03:23:38;;;;;;;15.25;11.57;;;;;;;17.60;88.73;100625.84;4995070;28;20061;-74
2021/06/24 03:26:03;;;;;;;12.85;10.85;;;;;;;17.64;88.51;100612.91;5010488;28;20133;-74
2021/06/24 03:28:28;;;;;;;11.13;10.02;;;;;;;17.64;88.74;100618.25;5008278;28;20053;-75
2021/06/24 03:30:54;;;;;;;13.00;11.60;;;;;;;17.63;88.51;100616.59;4994022;28;20034;-74
2021/06/24 03:33:19;;;;;;;14.73;11.00;;;;;;;17.63;88.62;100616.59;4995012;28;20360;-74
2021/06/24 03:35:48;;;;;;;12.65;11.07;;;;;;;17.62;88.71;100612.28;4995057;28;20027;-74
2021/06/24 03:38:14;;;;;;;13.32;11.88;;;;;;;17.64;88.14;100615.59;5003071;28;20041;-75
2021/06/24 03:40:39;;;;;;;15.32;12.20;;;;;;;17.66;88.17;100607.34;4996958;28;20394;-74
2021/06/24 03:43:04;;;;;;;12.57;11.25;;;;;;;17.62;88.52;100602.41;4996205;28;20113;-75
2021/06/24 03:45:30;;;;;;;16.33;12.90;;;;;;;17.68;87.92;100610.66;5008517;28;20061;-74
2021/06/24 03:47:55;;;;;;;14.95;12.30;;;;;;;17.66;88.23;100612.69;5007206;28;20038;-75
2021/06/24 03:50:20;;;;;;;14.38;11.60;;;;;;;17.64;89.15;100615.59;5008434;28;20462;-74
2021/06/24 03:52:46;;;;;;;12.95;9.35;;;;;;;17.67;89.01;100617.03;5004859;28;20041;-75
2021/06/24 03:55:15;;;;;;;11.20;9.82;;;;;;;17.70;89.01;100606.75;5007038;28;20053;-74
2021/06/24 03:57:41;;;;;;;13.68;12.27;;;;;;;17.61;89.17;100603.44;5008439;28;20044;-74
2021/06/24 04:00:07;;;;;;;15.52;13.00;;;;;;;17.60;88.82;100615.13;5006036;28;20030;-74
2021/06/24 04:02:32;;;;;;;13.68;12.00;;;;;;;17.57;89.18;100602.16;4994863;28;20183;-74
2021/06/24 04:04:57;;;;;;;10.50;9.52;;;;;;;17.62;88.70;100606.94;4991455;28;20053;-74
2021/06/24 04:07:23;;;;;;;10.10;9.10;;;;;;;17.68;88.84;100608.81;4999714;28;20108;-74
2021/06/24 04:09:48;;;;;;;12.57;10.13;;;;;;;17.68;89.05;100606.13;4999760;28;20437;-74
2021/06/24 04:12:13;;;;;;;15.90;13.65;;;;;;;17.72;88.25;100603.91;5008574;28;20517;-75
2021/06/24 04:14:39;;;;;;;13.80;12.40;;;;;;;17.69;88.35;100606.97;4997402;28;20026;-74
2021/06/24 04:17:05;;;;;;;12.05;10.77;;;;;;;17.70;88.28;100598.75;5007432;28;20530;-74
2021/06/24 04:19:30;;;;;;;13.07;11.68;;;;;;;17.78;87.75;100589.72;5015937;28;20044;-74
2021/06/24 04:21:55;;;;;;;11.65;10.40;;;;;;;17.74;88.78;100593.84;5007034;28;20119;-74
2021/06/24 04:24:21;;;;;;;12.07;10.85;;;;;;;17.81;87.78;100592.88;4998875;28;20056;-74
2021/06/24 04:26:46;;;;;;;13.10;11.68;;;;;;;17.77;87.96;100593.44;4998062;28;20046;-74
2021/06/24 04:29:11;;;;;;;12.55;10.65;;;;;;;17.77;88.48;100593.44;4998048;28;20034;-74
2021/06/24 04:31:37;;;;;;;12.98;11.68;;;;;;;17.76;88.21;100592.63;4998493;28;20502;-74
2021/06/24 04:34:02;;;;;;;13.55;11.18;;;;;;;17.76;88.32;100589.13;5003281;28;20034;-74
2021/06/24 04:36:28;;;;;;;14.27;12.77;;;;;;;17.70;88.51;100585.38;5006357;28;20035;-74
2021/06/24 04:38:53;;;;;;;14.85;11.93;;;;;;;17.75;87.69;100585.59;5004906;28;20120;-74
2021/06/24 04:41:18;;;;;;;14.25;12.25;;;;;;;17.80;87.62;100587.69;5007411;28;20513;-74
2021/06/24 04:43:44;;;;;;;14.07;11.93;;;;;;;17.78;87.50;100579.03;4993580;28;20275;-74
2021/06/24 04:46:09;;;;;;;13.40;11.80;;;;;;;17.76;87.88;100573.06;5004481;28;20253;-74
2021/06/24 04:48:38;;;;;;;13.00;10.80;;;;;;;17.79;88.07;100570.00;5000587;28;20034;-74
2021/06/24 04:51:03;;;;;;;10.40;9.40;;;;;;;17.87;87.93;100567.16;5009529;28;20121;-74
2021/06/24 04:53:29;;;;;;;9.23;8.18;;;;;;;17.95;87.48;100569.69;4996533;28;20472;-74
2021/06/24 04:55:54;;;;;;;11.07;9.80;;;;;;;17.99;87.88;100573.59;4998977;28;20042;-74
2021/06/24 04:58:19;;;;;;;9.90;8.90;;;;;;;18.03;87.98;100566.84;5004501;28;20107;-75
2021/06/24 05:00:45;;;;;;;9.38;8.48;;;;;;;18.09;87.67;100554.53;5006790;28;20053;-74
2021/06/24 05:03:10;;;;;;;11.02;9.90;;;;;;;18.09;87.30;100561.72;5005093;28;20107;-74
2021/06/24 05:05:38;;;;;;;10.38;9.38;;;;;;;18.15;87.28;100561.72;5010511;28;20123;-74
2021/06/24 05:08:10;;;;;;;9.45;8.18;;;;;;;18.19;86.72;100563.00;5012074;28;20037;-75
2021/06/24 05:10:35;;;;;;;8.80;8.00;;;;;;;18.25;86.83;100564.03;5010402;28;20033;-75
2021/06/24 05:13:01;;;;;;;8.85;7.65;;;;;;;18.30;86.41;100564.25;5022836;28;20064;-75
2021/06/24 05:15:26;;;;;;;10.20;8.45;;;;;;;18.35;86.18;100561.81;5024983;28;20294;-74
2021/06/24 05:17:52;;;;;;;8.70;7.80;;;;;;;18.40;86.15;100562.03;5030838;28;20117;-74
2021/06/24 05:20:18;;;;;;;8.75;7.95;;;;;;;18.44;85.81;100567.78;5029997;28;20532;-75
2021/06/24 05:22:43;;;;;;;11.52;10.32;;;;;;;18.38;85.56;100569.44;5031379;28;20037;-75
2021/06/24 05:25:10;;;;;;;10.63;9.35;;;;;;;18.38;85.78;100574.78;5037568;28;20037;-74
2021/06/24 05:27:35;;;;;;;10.32;9.25;;;;;;;18.41;85.77;100570.88;5032404;28;20517;-75
2021/06/24 05:30:00;;;;;;;9.25;8.35;;;;;;;18.44;85.59;100573.16;5033395;28;20315;-75
2021/06/24 05:32:26;;;;;;;10.50;9.40;;;;;;;18.35;85.78;100563.63;5031720;28;20033;-74
2021/06/24 05:34:51;;;;;;;8.27;7.45;;;;;;;18.41;86.00;100569.03;5032045;28;20036;-74
2021/06/24 05:37:16;;;;;;;8.30;7.15;;;;;;;18.46;86.26;100576.44;5036248;28;20037;-74
2021/06/24 05:39:42;;;;;;;11.38;9.32;;;;;;;18.43;86.92;100571.50;5035896;28;20101;-74
2021/06/24 05:42:07;;;;;;;10.60;8.77;;;;;;;18.39;86.69;100571.06;5027604;28;20054;-74
2021/06/24 05:44:33;;;;;;;10.13;8.85;;;;;;;18.38;86.39;100568.63;5028131;28;20040;-74
2021/06/24 05:47:00;;;;;;;8.38;7.25;;;;;;;18.41;87.00;100570.88;5021827;28;20114;-76
2021/06/24 05:49:25;;;;;;;10.57;9.05;;;;;;;18.38;86.89;100574.78;5022357;28;20025;-76
2021/06/24 05:51:51;;;;;;;7.80;7.00;;;;;;;18.41;87.14;100571.69;5025261;28;20084;-76
2021/06/24 05:54:16;;;;;;;9.75;8.80;;;;;;;18.38;86.95;100564.09;5038239;28;20084;-77
2021/06/24 05:56:42;;;;;;;7.88;7.07;;;;;;;18.44;87.35;100568.59;5032840;28;20022;-77
2021/06/24 05:59:08;;;;;;;11.68;9.90;;;;;;;18.42;86.94;100570.69;5025442;28;20529;-76
2021/06/24 06:01:33;;;;;;;8.98;8.00;;;;;;;18.43;87.50;100566.16;5036640;28;20105;-77
2021/06/24 06:03:59;;;;;;;9.75;7.97;;;;;;;18.38;87.81;100558.72;5030267;28;20037;-77
2021/06/24 06:06:24;;;;;;;10.60;9.55;;;;;;;18.34;87.16;100557.47;5035199;28;24851;-77
2021/06/24 06:08:49;;;;;;;10.77;8.88;;;;;;;18.22;88.34;100556.41;5025703;28;20033;-77
2021/06/24 06:11:15;;;;;;;11.13;8.90;;;;;;;18.28;87.64;100555.59;5029618;28;20108;-77
2021/06/24 06:13:40;;;;;;;9.77;8.77;;;;;;;18.21;88.49;100552.91;5029729;28;20034;-77
2021/06/24 06:16:05;;;;;;;10.25;8.32;;;;;;;18.28;88.42;100552.91;5031584;28;20053;-77
2021/06/24 06:18:31;;;;;;;9.27;8.32;;;;;;;18.23;87.81;100548.19;5033761;28;20441;-77
2021/06/24 06:20:57;;;;;;;10.32;8.75;;;;;;;18.11;88.35;100540.94;5022842;28;20066;-77
2021/06/24 06:23:25;;;;;;;9.20;8.23;;;;;;;18.10;88.28;100539.28;5009392;28;20614;-76
2021/06/24 06:25:51;;;;;;;8.70;7.82;;;;;;;18.04;88.96;100546.25;5009646;28;20122;-77
2021/06/24 06:28:17;;;;;;;10.00;9.00;;;;;;;17.98;89.05;100539.84;5011886;28;20042;-76
2021/06/24 06:30:44;;;;;;;10.65;8.70;;;;;;;17.95;89.37;100540.25;5012220;28;20135;-77
2021/06/24 06:33:09;;;;;;;10.80;8.77;;;;;;;17.96;88.95;100544.59;5012508;28;20130;-77
2021/06/24 06:35:37;;;;;;;11.80;9.05;;;;;;;17.94;88.89;100546.63;5012495;28;20109;-76
2021/06/24 06:38:03;;;;;;;9.15;8.25;;;;;;;17.95;89.50;100547.47;5012199;28;20038;-76
2021/06/24 06:40:29;;;;;;;8.82;7.80;;;;;;;17.97;89.39;100551.59;5011846;28;20033;-76
2021/06/24 06:42:55;;;;;;;8.40;7.50;;;;;;;18.03;89.20;100556.13;5012635;28;20034;-77
2021/06/24 06:45:21;;;;;;;9.32;8.38;;;;;;;18.04;88.87;100563.16;5012891;28;20188;-77
2021/06/24 06:47:47;;;;;;;8.75;6.93;;;;;;;18.07;88.87;100559.25;5013106;28;20030;-77
2021/06/24 06:50:14;;;;;;;7.85;7.05;;;;;;;18.11;88.65;100555.13;5011770;28;20077;-77
2021/06/24 06:52:39;;;;;;;7.55;6.78;;;;;;;18.14;88.63;100561.94;5013130;28;20449;-77
2021/06/24 06:55:05;;;;;;;5.88;5.30;;;;;;;18.18;89.80;100557.81;5011236;28;20030;-77
2021/06/24 06:57:30;;;;;;;7.38;6.13;;;;;;;18.24;88.23;100552.50;5012709;28;20045;-77
2021/06/24 06:59:56;;;;;;;6.22;5.63;;;;;;;18.26;88.38;100549.63;5009750;28;20231;-77
2021/06/24 07:02:21;;;;;;;6.15;5.55;;;;;;;18.26;87.95;100560.34;5015086;28;20038;-77
2021/06/24 07:04:46;;;;;;;6.00;5.50;;;;;;;18.22;87.97;100551.88;5009674;28;20034;-77
2021/06/24 07:07:12;;;;;;;5.50;5.00;;;;;;;18.25;87.92;100561.34;5010466;28;20034;-77
2021/06/24 07:09:37;;;;;;;5.45;4.93;;;;;;;18.35;88.28;100564.50;5007999;28;20036;-77
2021/06/24 07:12:03;;;;;;;6.15;4.75;;;;;;;18.42;87.80;100568.00;5021924;28;20040;-78
2021/06/24 07:14:28;;;;;;;5.05;4.55;;;;;;;18.50;87.53;100572.34;5009768;28;20026;-78
2021/06/24 07:16:54;;;;;;;4.30;3.90;;;;;;;18.54;88.07;100575.44;5010217;28;20071;-78
2021/06/24 07:19:19;;;;;;;5.15;4.60;;;;;;;18.64;86.91;100579.38;5013164;28;21149;-78
2021/06/24 07:21:45;;;;;;;5.53;4.93;;;;;;;18.62;86.53;100585.97;5011698;28;20077;-78
2021/06/24 07:24:10;;;;;;;5.78;5.13;;;;;;;18.56;86.96;100592.13;4999418;28;20038;-78
2021/06/24 07:26:38;;;;;;;10.68;6.55;;;;;;;18.51;87.70;100594.59;5008768;28;20042;-77
2021/06/24 07:29:03;;;;;;;9.48;6.35;;;;;;;18.49;86.39;100599.31;5009439;28;20096;-78
2021/06/24 07:31:29;;;;;;;7.35;6.30;;;;;;;18.41;86.20;100606.50;5009954;28;20459;-78
2021/06/24 07:33:54;;;;;;;5.25;4.65;;;;;;;18.39;86.10;100605.06;5011675;28;20374;-78
2021/06/24 07:36:20;;;;;;;6.10;5.50;;;;;;;18.35;87.40;100612.69;5011289;28;20046;-77
2021/06/24 07:38:45;;;;;;;6.00;5.40;;;;;;;18.39;87.43;100611.22;5011282;28;20144;-77
2021/06/24 07:41:10;;;;;;;5.97;5.38;;;;;;;18.46;88.28;100609.41;5009909;28;20112;-77
2021/06/24 07:43:36;;;;;;;5.30;4.65;;;;;;;18.58;87.54;100611.50;5010354;28;20511;-77
2021/06/24 07:46:01;;;;;;;4.28;3.88;;;;;;;18.66;87.15;100606.78;5008482;28;20049;-77
2021/06/24 07:48:27;;;;;;;3.78;3.38;;;;;;;18.71;87.88;100611.53;5007017;28;20475;-77
2021/06/24 07:50:52;;;;;;;4.15;3.38;;;;;;;18.78;87.68;100612.41;5011302;28;20545;-78
2021/06/24 07:53:18;;;;;;;3.70;3.40;;;;;;;18.89;87.52;100613.66;5001136;28;20132;-77
2021/06/24 07:55:43;;;;;;;4.97;4.50;;;;;;;18.87;87.25;100615.69;5003325;28;20037;-77
2021/06/24 07:58:09;;;;;;;4.75;4.35;;;;;;;18.85;87.80;100609.72;5010201;28;20041;-78
2021/06/24 08:00:35;;;;;;;3.92;3.58;;;;;;;18.88;88.00;100610.16;5015649;28;20387;-77
2021/06/24 08:03:03;;;;;;;4.65;4.22;;;;;;;18.86;87.45;100603.34;5014711;28;20042;-77
2021/06/24 08:05:29;;;;;;;5.80;4.60;;;;;;;18.89;87.44;100610.97;5004349;28;20049;-77
2021/06/24 08:07:55;;;;;;;5.72;5.20;;;;;;;18.96;87.24;100594.91;5025442;28;20064;-77
2021/06/24 08:10:20;;;;;;;5.53;5.03;;;;;;;19.02;87.58;100604.78;5000761;28;20038;-76
2021/06/24 08:12:47;;;;;;;6.13;5.53;;;;;;;19.11;87.31;100600.88;5018791;28;20127;-76
2021/06/24 08:15:14;;;;;;;7.20;6.50;;;;;;;19.26;86.64;100601.50;5026363;28;20111;-77
2021/06/24 08:17:40;;;;;;;7.22;6.25;;;;;;;19.27;87.14;100597.78;5034532;28;20116;-77
2021/06/24 08:20:08;;;;;;;7.28;6.00;;;;;;;19.31;86.97;100598.19;5030302;28;20061;-77
2021/06/24 08:22:34;;;;;;;9.15;7.35;;;;;;;19.25;86.65;100594.47;5037879;28;20060;-77
2021/06/24 08:24:59;;;;;;;9.10;7.15;;;;;;;19.16;86.62;100589.53;5030999;28;20065;-77
2021/06/24 08:27:25;;;;;;;7.05;6.25;;;;;;;19.21;86.47;100601.31;5029492;28;20026;-77
2021/06/24 08:29:51;;;;;;;5.78;5.18;;;;;;;19.33;87.15;100603.34;5029111;28;20045;-77
2021/06/24 08:32:16;;;;;;;5.32;4.82;;;;;;;19.38;86.78;100607.06;5028563;28;20048;-77
2021/06/24 08:34:42;;;;;;;7.72;6.93;;;;;;;19.44;85.90;100600.03;5029484;28;20387;-76
2021/06/24 08:37:07;;;;;;;10.68;8.55;;;;;;;19.39;86.52;100603.34;5025457;28;20037;-77
2021/06/24 08:39:33;;;;;;;8.30;7.43;;;;;;;19.43;86.03;100603.75;5029092;28;20030;-77
2021/06/24 08:41:58;;;;;;;7.75;7.05;;;;;;;19.60;86.35;100607.66;5021441;28;20045;-77
2021/06/24 08:44:23;;;;;;;8.20;7.35;;;;;;;19.58;85.05;100607.03;5024135;28;20105;-76
2021/06/24 08:46:52;;;;;;;10.50;9.15;;;;;;;19.55;85.35;100612.00;5022093;28;20372;-77
2021/06/24 08:49:23;;;;;;;7.72;6.93;;;;;;;19.70;85.35;100609.94;5034653;28;20552;-76
2021/06/24 08:51:49;;;;;;;;;;;;;;;19.77;84.87;100609.91;5025887;28;20397;-76
2021/06/24 08:54:15;;;;;;;8.82;7.65;;;;;;;19.72;84.71;100610.53;5017476;28;19928;-76
2021/06/24 08:56:40;;;;;;;7.95;7.15;;;;;;;19.80;84.62;100618.34;5023222;28;20034;-76
2021/06/24 08:59:05;;;;;;;10.05;7.55;;;;;;;19.76;85.01;100613.63;5026519;28;20441;-76
2021/06/24 09:01:54;;;;;;;9.50;7.63;;;;;;;19.77;85.50;100618.78;5023924;28;20075;-76
2021/06/24 09:04:21;;;;;;;8.60;7.80;;;;;;;19.88;84.44;100609.28;5020957;28;20121;-76
2021/06/24 09:06:47;;;;;;;7.57;6.88;;;;;;;20.14;84.46;100617.22;5033606;28;20037;-76
2021/06/24 09:09:27;;;;;;;10.27;7.57;;;;;;;20.22;82.99;100621.53;5022285;28;20041;-76
2021/06/24 09:12:06;;;;;;;9.70;8.48;;;;;;;20.36;82.64;100619.63;5027824;28;20094;-76
2021/06/24 09:14:44;;;;;;;9.48;7.85;;;;;;;20.26;82.77;100635.34;5029256;28;20038;-77
2021/06/24 09:17:11;;;;;;;8.57;7.68;;;;;;;20.17;82.37;100629.41;5021357;28;20065;-76
2021/06/24 09:19:45;;;;;;;9.02;8.13;;;;;;;19.94;83.31;100632.56;5020402;28;20400;-76
2021/06/24 09:22:12;;;;;;;9.30;8.40;;;;;;;19.80;84.96;100631.78;5023068;28;20036;-76
2021/06/24 09:24:39;;;;;;;9.20;8.30;;;;;;;19.78;84.27;100628.47;5029841;28;20040;-76
2021/06/24 09:27:18;;;;;;;9.40;8.50;;;;;;;19.55;84.42;100636.97;5026928;28;20048;-76
2021/06/24 09:29:48;;;;;;;9.27;8.38;;;;;;;19.45;84.25;100633.84;5037461;28;20037;-76
2021/06/24 09:32:28;;;;;;;10.13;8.77;;;;;;;19.32;84.98;100640.06;5009078;28;20041;-76
2021/06/24 09:34:54;;;;;;;10.10;8.93;;;;;;;19.18;85.89;100638.41;5004046;28;20299;-76
2021/06/24 09:37:20;;;;;;;10.07;9.10;;;;;;;19.03;86.95;100635.94;5005986;28;20033;-76
2021/06/24 09:39:47;;;;;;;9.98;8.98;;;;;;;18.84;88.99;100641.03;5005474;28;20042;-76
2021/06/24 09:42:14;;;;;;;10.70;9.68;;;;;;;18.72;89.49;100641.81;5005096;28;20398;-75
2021/06/24 09:44:46;;;;;;;11.40;10.02;;;;;;;18.59;89.36;100639.91;5009542;28;20034;-75
2021/06/24 09:47:29;;;;;;;11.32;10.13;;;;;;;18.49;89.84;100637.63;5004679;28;20124;-75
2021/06/24 09:50:01;;;;;;;11.20;10.00;;;;;;;18.52;89.90;100636.41;5014560;28;20115;-75
2021/06/24 09:52:28;;;;;;;11.32;9.85;;;;;;;18.50;89.64;100633.94;5006415;28;20038;-76
2021/06/24 09:55:13;;;;;;;11.95;10.52;;;;;;;18.54;90.55;100640.53;5009588;28;20049;-76
2021/06/24 09:57:39;;;;;;;10.82;9.70;;;;;;;18.64;89.99;100637.47;5026732;28;20026;-76
2021/06/24 10:00:22;;;;;;;12.02;10.70;;;;;;;18.68;90.16;100644.06;5018298;28;20040;-75
2021/06/24 10:03:13;;;;;;;11.60;10.32;;;;;;;18.72;90.51;100634.59;5004166;28;20034;-76
2021/06/24 10:05:40;;;;;;;11.00;9.80;;;;;;;18.84;90.62;100627.66;5038976;28;20565;-76
2021/06/24 10:08:06;;;;;;;11.73;10.38;;;;;;;18.90;89.70;100642.06;5022934;28;20091;-75
2021/06/24 10:10:32;;;;;;;12.18;10.98;;;;;;;18.92;88.67;100637.34;5026902;28;20674;-75
2021/06/24 10:12:57;;;;;;;12.18;10.93;;;;;;;18.90;88.49;100642.06;5032413;28;20455;-75
2021/06/24 10:15:24;;;;;;;10.23;9.20;;;;;;;18.91;88.95;100641.06;5026504;28;20072;-76
2021/06/24 10:17:53;;;;;;;9.85;8.85;;;;;;;18.92;89.52;100640.03;5019589;28;20065;-76
2021/06/24 10:20:18;;;;;;;12.13;10.88;;;;;;;18.93;88.50;100640.88;5037244;28;20044;-76
2021/06/24 10:22:54;;;;;;;9.95;8.85;;;;;;;18.91;88.45;100638.38;5029085;28;20029;-76
2021/06/24 10:25:22;;;;;;;10.40;9.30;;;;;;;18.94;88.16;100637.16;5020951;28;20091;-76
2021/06/24 10:27:53;;;;;;;8.15;6.80;;;;;;;18.84;87.83;100643.72;5019867;28;20524;-76
2021/06/24 10:30:22;;;;;;;;;;;;;;;18.77;87.45;100650.09;5029251;28;20038;-76
2021/06/24 10:33:02;;;;;;;6.13;5.15;;;;;;;18.61;88.40;100660.13;5033357;28;19917;-76
2021/06/24 10:35:30;;;;;;;6.73;5.97;;;;;;;18.45;88.65;100658.63;5051541;28;20030;-75
2021/06/24 10:37:56;;;;;;;4.70;3.58;;;;;;;18.16;88.37;100664.25;5025227;28;20280;-76
2021/06/24 10:40:33;;;;;;;4.30;3.40;;;;;;;17.85;88.36;100654.00;5019588;28;20041;-77
2021/06/24 10:43:02;;;;;;;8.52;3.88;;;;;;;17.62;91.00;100655.06;5026329;28;20538;-76
2021/06/24 10:45:28;;;;;;;6.20;3.88;;;;;;;17.50;91.91;100643.25;5031794;28;20034;-76
2021/06/24 10:47:55;;;;;;;5.32;3.92;;;;;;;17.45;92.70;100642.97;5025484;28;20395;-76
2021/06/24 10:50:36;;;;;;;4.68;3.85;;;;;;;17.49;90.64;100647.75;5031461;28;20037;-76
2021/06/24 10:53:06;;;;;;;6.18;4.55;;;;;;;17.58;90.54;100659.97;5032283;28;20079;-76
2021/06/24 10:55:31;;;;;;;7.05;4.60;;;;;;;17.52;91.48;100679.47;5013412;28;20087;-76
2021/06/24 10:57:58;;;;;;;4.18;3.17;;;;;;;17.41;91.37;100667.44;5028366;28;20034;-76
2021/06/24 11:00:43;;;;;;;4.35;2.90;;;;;;;17.30;90.77;100662.59;5021627;28;20123;-77
2021/06/24 11:03:10;;;;;;;6.68;2.47;;;;;;;17.16;92.05;100660.84;5024157;28;20548;-77
2021/06/24 11:05:38;;;;;;;4.47;3.30;;;;;;;17.12;91.58;100652.41;5041253;28;20042;-76
2021/06/24 11:08:18;;;;;;;3.63;3.10;;;;;;;17.06;92.55;100644.31;5028647;28;20520;-77
2021/06/24 11:10:55;;;;;;;4.07;3.17;;;;;;;17.02;92.73;100635.00;5026107;28;20457;-77
2021/06/24 11:13:39;;;;;;;3.83;3.20;;;;;;;17.15;93.95;100638.63;5028738;28;20456;-77
2021/06/24 11:16:24;;;;;;;3.78;3.08;;;;;;;17.37;94.92;100628.75;5021849;28;20025;-77
2021/06/24 11:18:59;;;;;;;4.63;3.63;;;;;;;17.49;95.82;100630.88;5028696;28;20053;-77
2021/06/24 11:21:30;;;;;;;4.30;2.90;;;;;;;17.59;96.61;100629.53;5028183;28;20479;-77